Time;durP1;ratioP1;P1;durP2;ratioP2;P2;SDS_P1;SDS_P2;PMS_P1;PMS_P2;Temp;Humidity;BMP_temperature;BMP_pressure;BME280_temperature;BME280_humidity;BME280_pressure;Samples;Min_cycle;Max_cycle;Signal;HPM_P1;HPM_P2
2022/11/27 00:01:12;;;;;;;16.85;13.65;;;;;;;7.62;54.33;100585.72;5032101;28;20018;-79
2022/11/27 00:03:39;;;;;;;18.60;14.00;;;;;;;7.66;54.03;100597.63;5030649;28;20049;-79
2022/11/27 00:06:05;;;;;;;20.13;13.68;;;;;;;7.88;53.92;100625.50;5032068;28;20108;-79
2022/11/27 00:08:31;;;;;;;16.98;13.27;;;;;;;7.39;53.86;100544.81;5031837;28;20049;-80
2022/11/27 00:10:56;;;;;;;16.38;14.02;;;;;;;7.79;54.01;100605.28;5031916;28;20038;-79
2022/11/27 00:13:22;;;;;;;22.50;13.95;;;;;;;7.65;54.07;100596.78;5030894;28;20029;-80
2022/11/27 00:15:47;;;;;;;17.65;13.50;;;;;;;8.15;53.96;100666.97;5032039;28;20045;-80
2022/11/27 00:18:13;;;;;;;18.52;14.65;;;;;;;7.23;53.94;100526.91;5030667;28;20037;-79
2022/11/27 00:20:38;;;;;;;16.75;13.43;;;;;;;7.45;54.33;100563.53;5031798;28;20155;-80
2022/11/27 00:23:04;;;;;;;17.20;13.65;;;;;;;7.11;54.12;100518.31;5031706;28;20032;-80
2022/11/27 00:25:30;;;;;;;15.45;12.50;;;;;;;7.48;54.33;100601.84;5030555;28;20029;-80
2022/11/27 00:27:55;;;;;;;14.13;11.85;;;;;;;7.96;53.97;100673.84;5030450;28;20481;-80
2022/11/27 00:30:21;;;;;;;15.82;12.00;;;;;;;7.35;54.49;100560.00;5031615;28;20021;-79
2022/11/27 00:32:46;;;;;;;16.35;12.75;;;;;;;7.64;54.48;100604.81;5031494;28;20575;-79
2022/11/27 00:35:11;;;;;;;17.02;12.02;;;;;;;8.08;54.52;100674.56;5031473;28;20514;-79
2022/11/27 00:37:37;;;;;;;14.95;12.20;;;;;;;7.62;54.60;100594.44;5031612;28;20114;-80
2022/11/27 00:40:03;;;;;;;15.00;12.43;;;;;;;8.04;54.29;100662.63;5031485;28;20104;-79
2022/11/27 00:42:28;;;;;;;13.55;10.75;;;;;;;7.91;54.23;100660.25;5046671;28;20418;-79
2022/11/27 00:44:53;;;;;;;13.55;11.23;;;;;;;7.58;54.63;100597.47;5046729;28;20040;-79
2022/11/27 00:47:19;;;;;;;15.75;12.38;;;;;;;7.66;54.49;100602.88;5031389;28;20083;-80
2022/11/27 00:49:45;;;;;;;16.80;12.65;;;;;;;7.84;54.65;100626.75;5031417;28;20498;-79
2022/11/27 00:52:11;;;;;;;14.23;11.18;;;;;;;7.39;54.07;100540.38;5031231;28;20116;-79
2022/11/27 00:54:36;;;;;;;14.82;11.73;;;;;;;7.86;54.47;100622.19;5031199;28;20064;-79
2022/11/27 00:57:02;;;;;;;14.15;11.40;;;;;;;7.51;54.13;100576.16;5031211;28;20036;-79
2022/11/27 00:59:27;;;;;;;14.07;11.82;;;;;;;7.68;54.56;100613.25;5029801;28;20013;-80
2022/11/27 01:01:53;;;;;;;16.08;11.60;;;;;;;7.71;54.23;100605.94;5046538;28;20095;-79
2022/11/27 01:04:18;;;;;;;15.73;12.32;;;;;;;7.68;54.27;100613.25;5046468;28;20032;-79
2022/11/27 01:06:44;;;;;;;14.20;11.90;;;;;;;7.37;54.22;100552.00;5046482;28;20033;-79
2022/11/27 01:09:11;;;;;;;14.98;12.27;;;;;;;6.86;54.11;100456.56;5030938;28;20414;-80
2022/11/27 01:11:37;;;;;;;15.70;12.27;;;;;;;7.70;54.42;100608.72;5033634;28;20059;-79
2022/11/27 01:14:05;;;;;;;17.35;12.65;;;;;;;8.23;54.33;100669.78;5035184;28;20498;-79
2022/11/27 01:16:32;;;;;;;14.55;11.93;;;;;;;8.22;54.10;100676.84;5035265;28;20513;-79
2022/11/27 01:18:59;;;;;;;15.35;13.30;;;;;;;8.19;54.00;100684.16;5035070;28;20096;-79
2022/11/27 01:21:27;;;;;;;16.48;12.43;;;;;;;8.26;54.43;100674.78;5035210;28;20022;-79
2022/11/27 01:23:53;;;;;;;16.17;12.07;;;;;;;7.47;54.46;100537.97;5050335;28;20025;-79
2022/11/27 01:26:19;;;;;;;16.80;13.15;;;;;;;7.68;54.10;100566.78;5035092;28;20043;-79
2022/11/27 01:28:45;;;;;;;20.65;15.45;;;;;;;7.97;54.48;100604.50;5033685;28;20022;-80
2022/11/27 01:31:17;;;;;;;18.40;13.55;;;;;;;8.34;54.61;100668.84;5033747;28;20417;-80
2022/11/27 01:33:43;;;;;;;21.25;15.27;;;;;;;7.62;54.41;100557.66;5034943;28;20014;-80
2022/11/27 01:36:11;;;;;;;17.67;14.05;;;;;;;8.40;54.36;100660.41;5034730;28;20030;-79
2022/11/27 01:38:36;;;;;;;18.77;14.98;;;;;;;7.97;54.32;100593.97;5034645;28;20099;-79
2022/11/27 01:41:30;;;;;;;18.05;13.90;;;;;;;8.38;54.38;100650.03;5033390;28;20144;-79
2022/11/27 01:43:57;;;;;;;17.90;13.82;;;;;;;8.12;54.19;100604.94;5034223;28;20112;-79
2022/11/27 01:46:41;;;;;;;19.73;14.98;;;;;;;7.77;54.36;100576.50;5034534;28;20025;-79
2022/11/27 01:49:09;;;;;;;18.38;13.75;;;;;;;8.41;54.40;100662.09;5034527;28;20064;-79
2022/11/27 01:51:57;;;;;;;17.20;12.63;;;;;;;8.39;54.58;100656.13;5049630;28;20017;-79
2022/11/27 01:54:35;;;;;;;17.75;13.50;;;;;;;7.88;54.39;100572.91;5034108;28;20041;-79
2022/11/27 01:57:06;;;;;;;17.85;14.20;;;;;;;8.38;54.32;100650.03;5034330;28;20030;-79
2022/11/27 01:59:32;;;;;;;16.65;13.38;;;;;;;8.09;54.39;100607.84;5049715;28;20032;-79
2022/11/27 02:01:59;;;;;;;19.13;15.63;;;;;;;8.03;54.62;100594.41;5056509;28;20025;-80
2022/11/27 02:04:24;;;;;;;18.95;14.50;;;;;;;7.88;54.66;100593.94;5060456;28;20092;-80
2022/11/27 02:06:50;;;;;;;20.52;15.27;;;;;;;7.79;54.53;100576.34;5059526;28;20115;-79
2022/11/27 02:09:15;;;;;;;17.58;14.77;;;;;;;8.28;54.55;100659.69;5034324;28;20133;-79
2022/11/27 02:11:56;;;;;;;18.58;15.75;;;;;;;8.28;54.55;100660.50;5035230;28;20044;-79
2022/11/27 02:14:44;;;;;;;16.25;12.60;;;;;;;7.95;54.82;100631.88;5034251;28;20021;-79
2022/11/27 02:17:09;;;;;;;13.45;11.77;;;;;;;8.25;55.11;100660.78;5049461;28;20084;-79
2022/11/27 02:19:44;;;;;;;15.27;11.95;;;;;;;8.26;54.69;100661.63;5049490;28;20061;-79
2022/11/27 02:22:27;;;;;;;13.63;10.35;;;;;;;8.23;55.00;100665.34;5054456;28;20116;-79
2022/11/27 02:25:14;;;;;;;15.27;11.25;;;;;;;8.26;55.26;100661.63;5038453;28;20029;-79
2022/11/27 02:27:55;;;;;;;14.45;10.48;;;;;;;8.25;55.05;100662.59;5038909;28;20029;-79
2022/11/27 02:30:20;;;;;;;13.07;10.57;;;;;;;7.88;54.80;100610.56;5033980;28;20025;-79
2022/11/27 02:32:46;;;;;;;16.67;10.95;;;;;;;8.28;55.07;100662.31;5049575;28;20032;-79
2022/11/27 02:35:21;;;;;;;16.60;11.52;;;;;;;8.25;54.71;100658.16;5033918;28;20075;-79
2022/11/27 02:38:15;;;;;;;14.23;11.45;;;;;;;8.05;55.57;100627.47;5049362;28;20021;-79
2022/11/27 02:40:52;;;;;;;14.90;12.07;;;;;;;7.71;55.11;100578.81;5033634;28;20033;-79
2022/11/27 02:43:24;;;;;;;13.60;11.05;;;;;;;7.88;55.00;100612.34;5033571;28;20033;-79
2022/11/27 02:45:50;;;;;;;14.27;11.52;;;;;;;8.19;55.09;100655.22;5033831;28;20029;-79
2022/11/27 02:48:21;;;;;;;14.52;12.25;;;;;;;8.25;55.64;100670.47;5033413;28;20030;-79
2022/11/27 02:50:49;;;;;;;16.35;14.20;;;;;;;8.08;55.52;100631.63;5033455;28;20486;-79
2022/11/27 02:53:24;;;;;;;17.77;13.98;;;;;;;7.24;54.95;100487.38;5033457;28;20501;-79
2022/11/27 02:55:52;;;;;;;17.15;12.57;;;;;;;8.28;55.13;100665.78;5048635;28;20410;-79
2022/11/27 02:58:20;;;;;;;17.25;13.48;;;;;;;7.97;55.35;100641.31;5033418;28;20036;-79
2022/11/27 03:00:46;;;;;;;20.85;14.52;;;;;;;7.98;55.55;100616.66;5048816;28;20068;-79
2022/11/27 03:03:20;;;;;;;18.77;13.88;;;;;;;7.79;55.48;100586.88;5033252;28;20410;-79
2022/11/27 03:05:50;;;;;;;18.35;13.55;;;;;;;7.70;55.90;100582.44;5033408;28;20159;-80
2022/11/27 03:08:24;;;;;;;17.63;13.38;;;;;;;8.22;55.23;100684.72;5033168;28;20049;-79
2022/11/27 03:11:08;;;;;;;17.85;12.95;;;;;;;8.01;55.58;100651.56;5033212;28;20025;-79
2022/11/27 03:13:41;;;;;;;18.52;14.30;;;;;;;7.40;55.83;100563.06;5033203;28;20079;-79
2022/11/27 03:16:23;;;;;;;18.02;12.80;;;;;;;7.69;55.95;100593.91;5048180;28;20029;-79
2022/11/27 03:19:07;;;;;;;17.90;13.07;;;;;;;8.00;55.66;100649.91;5033000;28;20025;-79
2022/11/27 03:21:38;;;;;;;16.65;12.73;;;;;;;8.16;56.12;100685.25;5032792;28;20029;-79
2022/11/27 03:24:05;;;;;;;16.40;11.88;;;;;;;7.45;55.93;100573.22;5032646;28;20032;-79
2022/11/27 03:26:30;;;;;;;15.95;11.88;;;;;;;7.75;55.86;100623.13;5031613;28;20426;-80
2022/11/27 03:28:58;;;;;;;17.90;12.30;;;;;;;7.63;55.79;100592.63;5032440;28;20035;-79
2022/11/27 03:31:25;;;;;;;15.68;12.05;;;;;;;7.57;55.66;100582.66;5031342;28;20101;-79
2022/11/27 03:33:52;;;;;;;15.77;12.18;;;;;;;7.40;55.62;100560.44;5032087;28;20033;-79
2022/11/27 03:36:20;;;;;;;13.48;11.30;;;;;;;8.14;55.81;100683.72;5032616;28;20056;-80
2022/11/27 03:38:47;;;;;;;13.75;11.73;;;;;;;7.73;56.02;100651.34;5032672;28;20422;-79
2022/11/27 03:41:34;;;;;;;15.75;11.80;;;;;;;7.92;55.73;100651.41;5031585;28;20050;-79
2022/11/27 03:44:24;;;;;;;16.02;12.40;;;;;;;8.13;55.78;100687.31;5032373;28;20108;-79
2022/11/27 03:47:07;;;;;;;15.70;12.45;;;;;;;8.12;56.23;100686.47;5032594;28;20037;-79
2022/11/27 03:50:08;;;;;;;15.30;11.90;;;;;;;7.81;56.09;100637.53;5032479;28;20083;-79
2022/11/27 03:52:56;;;;;;;16.42;12.13;;;;;;;8.08;55.79;100684.25;5032128;28;20091;-79
2022/11/27 03:55:45;;;;;;;16.48;12.02;;;;;;;8.06;56.43;100691.44;5047405;28;20029;-79
2022/11/27 03:58:42;;;;;;;20.05;13.70;;;;;;;8.10;56.24;100683.16;5031939;28;20095;-79
2022/11/27 04:01:11;;;;;;;17.40;13.10;;;;;;;7.86;55.87;100651.09;5032318;28;20022;-79
2022/11/27 04:03:36;;;;;;;18.13;13.50;;;;;;;8.06;56.36;100684.38;5048064;28;20036;-79
2022/11/27 04:06:02;;;;;;;19.60;14.25;;;;;;;6.82;56.62;100486.66;5032354;28;20034;-80
2022/11/27 04:08:28;;;;;;;18.52;14.30;;;;;;;7.71;56.52;100634.88;5031898;28;20065;-79
2022/11/27 04:10:53;;;;;;;17.65;14.07;;;;;;;7.27;55.79;100547.53;5031860;28;20041;-80
2022/11/27 04:13:19;;;;;;;16.02;12.88;;;;;;;7.10;56.37;100521.91;5047269;28;20022;-79
2022/11/27 04:15:44;;;;;;;18.77;14.32;;;;;;;8.12;56.13;100683.84;5031838;28;20414;-80
2022/11/27 04:18:10;;;;;;;15.35;13.02;;;;;;;7.33;56.42;100564.56;5030568;28;20522;-79
2022/11/27 04:20:35;;;;;;;16.20;12.90;;;;;;;8.12;56.19;100678.59;5031848;28;20106;-79
2022/11/27 04:23:01;;;;;;;16.95;12.68;;;;;;;7.56;56.23;100573.94;5031662;28;20551;-79
2022/11/27 04:25:26;;;;;;;17.50;14.07;;;;;;;8.01;56.28;100644.50;5046991;28;20021;-79
2022/11/27 04:27:52;;;;;;;17.35;13.18;;;;;;;7.86;56.26;100627.44;5030113;28;20021;-79
2022/11/27 04:30:17;;;;;;;18.23;13.88;;;;;;;7.47;56.15;100574.75;5031502;28;20017;-79
2022/11/27 04:32:43;;;;;;;22.75;14.05;;;;;;;8.24;55.83;100692.50;5046987;28;20425;-80
2022/11/27 04:35:08;;;;;;;14.60;12.27;;;;;;;7.53;55.78;100579.47;5031774;28;20030;-79
2022/11/27 04:37:35;;;;;;;17.35;13.32;;;;;;;8.21;55.99;100696.22;5031680;28;20029;-79
2022/11/27 04:40:00;;;;;;;18.48;13.05;;;;;;;7.82;55.59;100632.13;5047140;28;20482;-80
2022/11/27 04:42:26;;;;;;;16.08;12.60;;;;;;;8.25;55.47;100702.03;5031427;28;20044;-79
2022/11/27 04:44:51;;;;;;;13.85;11.70;;;;;;;7.95;55.62;100663.44;5046593;28;20028;-79
2022/11/27 04:47:17;;;;;;;16.98;12.93;;;;;;;8.28;55.31;100691.25;5031326;28;20163;-79
2022/11/27 04:49:43;;;;;;;13.60;11.27;;;;;;;8.28;55.23;100688.63;5031109;28;20087;-79
2022/11/27 04:52:09;;;;;;;13.05;10.52;;;;;;;7.45;54.98;100560.91;5031152;28;20033;-80
2022/11/27 04:54:35;;;;;;;11.98;10.70;;;;;;;7.97;54.79;100637.84;5046550;28;20033;-80
2022/11/27 04:57:02;;;;;;;14.45;10.82;;;;;;;8.31;54.32;100701.50;5031212;28;20021;-79
2022/11/27 04:59:27;;;;;;;15.43;11.15;;;;;;;7.85;54.36;100631.03;5046405;28;20063;-79
2022/11/27 05:01:53;;;;;;;15.65;11.57;;;;;;;7.61;54.69;100586.69;5031707;28;20407;-79
2022/11/27 05:04:18;;;;;;;12.30;10.88;;;;;;;6.85;54.56;100488.19;5031108;28;20061;-79
2022/11/27 05:06:44;;;;;;;15.60;12.00;;;;;;;7.73;55.01;100632.94;5031078;28;20038;-79
2022/11/27 05:09:09;;;;;;;13.05;10.70;;;;;;;7.40;54.91;100572.75;5046231;28;20049;-79
2022/11/27 05:11:34;;;;;;;13.20;11.10;;;;;;;6.84;54.52;100473.41;5046533;28;20454;-79
2022/11/27 05:16:58;;;;;;;14.93;12.27;;;;;;;8.19;54.96;100686.81;5034068;28;20051;-79
2022/11/27 05:19:26;;;;;;;17.30;13.00;;;;;;;8.17;54.42;100686.91;5042028;28;20095;-79
2022/11/27 05:21:52;;;;;;;14.77;11.40;;;;;;;8.16;54.20;100706.28;5031566;28;20032;-79
2022/11/27 05:24:19;;;;;;;16.95;12.25;;;;;;;8.14;54.28;100700.31;5031778;28;20022;-79
2022/11/27 05:26:45;;;;;;;15.73;11.50;;;;;;;7.73;54.42;100625.03;5031075;28;20037;-79
2022/11/27 05:29:11;;;;;;;14.38;11.35;;;;;;;8.22;54.13;100712.84;5030877;28;20064;-79
2022/11/27 05:31:37;;;;;;;15.77;13.23;;;;;;;7.95;53.93;100684.47;5046346;28;20065;-79
2022/11/27 05:34:03;;;;;;;16.10;12.98;;;;;;;8.25;54.50;100709.94;5031558;28;20022;-79
2022/11/27 05:36:29;;;;;;;21.15;15.60;;;;;;;8.27;54.32;100706.22;5031183;28;20030;-79
2022/11/27 05:38:55;;;;;;;20.75;16.90;;;;;;;8.28;54.23;100704.41;5029972;28;20053;-79
2022/11/27 05:41:20;;;;;;;20.95;15.88;;;;;;;8.26;54.29;100703.72;5029619;28;20104;-79
2022/11/27 05:43:46;;;;;;;21.80;16.65;;;;;;;8.26;54.60;100709.81;5031122;28;20026;-79
2022/11/27 05:46:15;;;;;;;38.30;23.73;;;;;;;8.22;54.69;100708.41;5046220;28;20458;-79
2022/11/27 05:48:41;;;;;;;24.45;19.88;;;;;;;6.51;54.39;100449.06;5046046;28;20027;-79
2022/11/27 05:51:07;;;;;;;22.92;17.83;;;;;;;8.22;55.02;100713.66;5029518;28;20033;-79
2022/11/27 05:53:33;;;;;;;22.30;18.55;;;;;;;7.79;54.88;100637.66;5029458;28;20056;-79
2022/11/27 05:56:09;;;;;;;23.42;19.38;;;;;;;7.75;54.86;100631.00;5030807;28;20063;-79
2022/11/27 05:58:35;;;;;;;26.75;20.02;;;;;;;7.47;54.92;100594.94;5034187;28;20472;-80
2022/11/27 06:01:01;;;;;;;19.27;15.30;;;;;;;7.59;55.00;100615.72;5034190;28;20034;-79
2022/11/27 06:03:26;;;;;;;22.58;17.75;;;;;;;8.08;54.75;100698.22;5034188;28;20052;-79
2022/11/27 06:05:52;;;;;;;33.67;22.95;;;;;;;7.86;54.77;100677.41;5034318;28;20033;-79
2022/11/27 06:08:18;;;;;;;28.75;20.50;;;;;;;8.18;54.89;100729.84;5034007;28;20053;-79
2022/11/27 06:10:45;;;;;;;29.02;23.42;;;;;;;8.26;54.27;100733.47;5049527;28;20039;-79
2022/11/27 06:13:10;;;;;;;28.50;22.40;;;;;;;6.75;55.08;100511.78;5034178;28;20032;-80
2022/11/27 06:15:38;;;;;;;28.13;21.90;;;;;;;8.18;54.73;100738.59;5049566;28;20049;-79
2022/11/27 06:18:04;;;;;;;26.83;21.40;;;;;;;8.24;54.74;100743.31;5049601;28;20033;-79
2022/11/27 06:20:29;;;;;;;26.85;20.77;;;;;;;8.03;54.53;100702.22;5049885;28;20032;-79
2022/11/27 06:22:55;;;;;;;26.33;21.15;;;;;;;8.33;54.47;100743.47;5034098;28;20061;-79
2022/11/27 06:25:21;;;;;;;25.25;19.63;;;;;;;7.51;54.76;100612.09;5034110;28;20060;-79
2022/11/27 06:27:47;;;;;;;24.65;19.35;;;;;;;8.38;54.30;100736.03;5049353;28;20049;-79
2022/11/27 06:30:13;;;;;;;22.23;18.55;;;;;;;6.52;54.41;100449.88;5049359;28;20512;-79
2022/11/27 06:32:38;;;;;;;25.50;20.80;;;;;;;8.44;53.95;100753.91;5033853;28;20029;-79
2022/11/27 06:35:04;;;;;;;27.10;22.40;;;;;;;7.50;54.18;100613.91;5033858;28;20025;-79
2022/11/27 06:37:29;;;;;;;28.15;21.98;;;;;;;7.00;54.50;100553.34;5033673;28;20022;-79
2022/11/27 06:39:55;;;;;;;25.50;20.52;;;;;;;7.43;54.32;100591.75;5033999;28;20025;-79
2022/11/27 06:42:21;;;;;;;26.75;22.20;;;;;;;8.16;54.57;100727.31;5033472;28;20021;-79
2022/11/27 06:44:46;;;;;;;26.75;22.50;;;;;;;7.79;54.42;100655.22;5032261;28;20026;-80
2022/11/27 06:47:11;;;;;;;26.35;20.40;;;;;;;8.07;54.15;100695.72;5033551;28;20053;-79
2022/11/27 06:49:37;;;;;;;25.48;19.98;;;;;;;7.56;54.37;100636.19;5033549;28;20044;-80
2022/11/27 06:52:03;;;;;;;29.35;23.08;;;;;;;8.28;54.49;100713.13;5033390;28;20519;-79
2022/11/27 06:54:28;;;;;;;29.70;22.75;;;;;;;8.13;54.26;100684.69;5033978;28;20014;-80
2022/11/27 06:56:54;;;;;;;30.55;24.02;;;;;;;7.69;54.24;100641.22;5033904;28;20039;-79
2022/11/27 06:59:19;;;;;;;34.95;26.00;;;;;;;8.49;54.26;100754.34;5033588;28;20030;-80
2022/11/27 07:01:45;;;;;;;36.10;25.90;;;;;;;7.96;54.01;100660.69;5033502;28;20030;-79
2022/11/27 07:04:12;;;;;;;30.60;25.40;;;;;;;8.68;53.98;100751.75;5031879;28;20087;-79
2022/11/27 07:06:38;;;;;;;31.88;25.10;;;;;;;8.55;54.14;100723.06;5033179;28;20048;-80
2022/11/27 07:09:05;;;;;;;27.92;21.80;;;;;;;8.62;53.91;100707.53;5032001;28;20042;-79
2022/11/27 07:11:30;;;;;;;24.65;20.75;;;;;;;8.59;53.51;100694.66;5031809;28;20057;-80
2022/11/27 07:13:58;;;;;;;25.08;20.55;;;;;;;8.93;53.58;100741.69;5033104;28;20045;-79
2022/11/27 07:16:24;;;;;;;24.05;18.27;;;;;;;8.73;53.62;100744.28;5048313;28;20049;-79
2022/11/27 07:18:52;;;;;;;22.48;17.42;;;;;;;9.02;53.25;100746.97;5031673;28;20049;-80
2022/11/27 07:21:18;;;;;;;19.42;15.50;;;;;;;8.57;53.03;100659.75;5032919;28;20035;-79
2022/11/27 07:23:44;;;;;;;17.38;15.10;;;;;;;9.05;53.14;100737.94;5048109;28;20116;-80
2022/11/27 07:26:12;;;;;;;19.52;15.32;;;;;;;9.07;52.82;100750.00;5048139;28;20056;-79
2022/11/27 07:28:38;;;;;;;15.77;12.48;;;;;;;8.32;52.94;100618.97;5032890;28;20049;-79
2022/11/27 07:31:04;;;;;;;16.48;12.82;;;;;;;8.91;52.34;100697.03;5032635;28;20060;-79
2022/11/27 07:33:30;;;;;;;12.85;10.70;;;;;;;8.73;52.10;100675.00;5031346;28;20025;-79
2022/11/27 07:36:02;;;;;;;19.67;12.38;;;;;;;7.85;51.83;100524.06;5031378;28;20022;-79
2022/11/27 07:38:27;;;;;;;13.98;11.95;;;;;;;8.76;51.92;100701.88;5032669;28;20026;-80
2022/11/27 07:40:53;;;;;;;13.60;10.70;;;;;;;9.12;51.83;100758.31;5032604;28;20032;-79
2022/11/27 07:43:18;;;;;;;13.68;11.70;;;;;;;9.16;51.37;100758.88;5032447;28;20387;-79
2022/11/27 07:45:43;;;;;;;17.10;13.23;;;;;;;8.80;51.24;100698.00;5039454;28;20105;-79
2022/11/27 07:48:09;;;;;;;14.48;11.98;;;;;;;8.69;51.04;100653.38;5054678;28;20033;-79
2022/11/27 07:50:34;;;;;;;16.33;12.75;;;;;;;9.00;51.02;100705.91;5033872;28;20013;-79
2022/11/27 07:53:00;;;;;;;14.70;12.30;;;;;;;8.68;50.63;100646.44;5032979;28;20013;-79
2022/11/27 07:55:25;;;;;;;11.10;9.70;;;;;;;9.16;50.70;100708.81;5033023;28;20026;-79
2022/11/27 07:57:50;;;;;;;12.20;9.68;;;;;;;9.04;50.47;100678.31;5032147;28;20084;-79
2022/11/27 08:00:16;;;;;;;12.25;9.13;;;;;;;9.45;49.81;100727.22;5032035;28;20513;-79
2022/11/27 08:02:42;;;;;;;13.88;11.93;;;;;;;9.56;49.59;100730.53;5032043;28;20033;-79
2022/11/27 08:05:08;;;;;;;14.10;10.60;;;;;;;9.35;49.73;100686.88;5032253;28;20022;-78
2022/11/27 08:07:33;;;;;;;13.50;10.38;;;;;;;8.67;49.41;100580.75;5036411;28;20032;-78
2022/11/27 08:09:58;;;;;;;12.40;10.35;;;;;;;9.33;49.58;100697.56;5040167;28;20108;-79
2022/11/27 08:12:24;;;;;;;15.02;10.68;;;;;;;9.14;49.27;100643.09;5031855;28;20104;-79
2022/11/27 08:14:50;;;;;;;13.70;9.68;;;;;;;9.16;49.33;100656.13;5047181;28;20025;-78
2022/11/27 08:17:16;;;;;;;11.45;10.07;;;;;;;9.00;49.16;100619.00;5031763;28;20405;-79
2022/11/27 08:19:41;;;;;;;12.43;10.93;;;;;;;9.45;48.88;100691.16;5031673;28;20443;-79
2022/11/27 08:22:18;;;;;;;14.60;11.77;;;;;;;9.86;49.00;100765.59;5031800;28;20021;-78
2022/11/27 08:24:44;;;;;;;11.70;8.52;;;;;;;9.55;48.59;100714.84;5031794;28;20066;-78
2022/11/27 08:27:10;;;;;;;11.10;9.10;;;;;;;9.93;48.25;100745.56;5031872;28;20029;-78
2022/11/27 08:29:37;;;;;;;12.13;9.82;;;;;;;9.66;48.23;100706.81;5046875;28;20037;-79
2022/11/27 08:32:03;;;;;;;12.55;10.73;;;;;;;9.14;48.55;100614.09;5031580;28;20025;-79
2022/11/27 08:34:29;;;;;;;12.70;10.57;;;;;;;9.33;48.52;100634.31;5031552;28;20028;-79
2022/11/27 08:36:54;;;;;;;12.98;10.60;;;;;;;9.13;48.12;100582.63;5031579;28;20021;-78
2022/11/27 08:39:20;;;;;;;12.95;11.20;;;;;;;9.43;48.14;100660.63;5031620;28;20021;-78
2022/11/27 08:41:45;;;;;;;15.30;11.48;;;;;;;9.49;48.17;100634.53;5046826;28;20552;-79
2022/11/27 08:44:10;;;;;;;12.98;10.95;;;;;;;10.13;48.19;100720.78;5031321;28;20021;-78
2022/11/27 08:46:36;;;;;;;15.25;12.25;;;;;;;9.21;48.72;100585.38;5031333;28;20032;-78
2022/11/27 08:49:01;;;;;;;14.73;12.13;;;;;;;9.85;48.32;100672.44;5031423;28;20033;-79
2022/11/27 08:51:27;;;;;;;15.77;11.93;;;;;;;10.28;48.27;100723.78;5031123;28;20030;-79
2022/11/27 08:53:52;;;;;;;12.98;10.95;;;;;;;9.78;48.07;100636.25;5031450;28;20017;-79
2022/11/27 08:56:21;;;;;;;13.32;10.98;;;;;;;10.29;47.70;100722.81;5046684;28;20083;-78
2022/11/27 08:58:47;;;;;;;12.50;10.55;;;;;;;9.82;47.69;100645.53;5031268;28;20032;-79
2022/11/27 09:01:18;;;;;;;13.38;10.63;;;;;;;10.18;47.50;100686.03;5046559;28;20104;-79
2022/11/27 09:03:43;;;;;;;13.57;10.27;;;;;;;8.68;47.11;100433.19;5046529;28;20032;-79
2022/11/27 09:06:12;;;;;;;15.15;11.05;;;;;;;10.35;47.53;100700.25;5031340;28;20033;-79
2022/11/27 09:08:41;;;;;;;13.70;11.13;;;;;;;10.32;46.95;100695.28;5031251;28;20550;-78
2022/11/27 09:11:07;;;;;;;14.27;9.82;;;;;;;10.14;46.93;100664.38;5031611;28;20029;-78
2022/11/27 09:13:38;;;;;;;13.30;10.65;;;;;;;9.76;46.77;100610.00;5046715;28;20100;-79
2022/11/27 09:16:04;;;;;;;14.25;10.40;;;;;;;9.93;46.38;100639.22;5031268;28;20104;-79
2022/11/27 09:18:30;;;;;;;13.98;10.20;;;;;;;8.99;45.95;100473.28;5030967;28;20096;-78
2022/11/27 09:21:01;;;;;;;13.02;9.90;;;;;;;10.18;46.24;100649.91;5030875;28;20624;-79
2022/11/27 09:23:27;;;;;;;11.00;8.85;;;;;;;10.47;46.13;100675.34;5029807;28;20021;-79
2022/11/27 09:25:53;;;;;;;12.55;10.05;;;;;;;10.06;45.84;100611.50;5029873;28;20429;-79
2022/11/27 09:28:18;;;;;;;11.68;9.63;;;;;;;10.01;46.04;100599.75;5030689;28;20021;-78
2022/11/27 09:30:44;;;;;;;13.63;10.25;;;;;;;9.92;46.27;100590.91;5030649;28;20021;-78
2022/11/27 09:33:10;;;;;;;14.35;11.68;;;;;;;9.95;46.41;100581.88;5049620;28;20087;-79
2022/11/27 09:35:38;;;;;;;14.07;10.55;;;;;;;10.00;46.50;100559.34;5034848;28;20076;-79
2022/11/27 09:38:04;;;;;;;13.38;10.15;;;;;;;10.30;45.59;100610.13;5034889;28;20080;-78
2022/11/27 09:40:29;;;;;;;13.27;9.85;;;;;;;9.85;45.67;100537.09;5050087;28;20512;-79
2022/11/27 09:43:01;;;;;;;11.02;8.57;;;;;;;10.60;45.68;100633.53;5034695;28;20059;-79
2022/11/27 09:45:27;;;;;;;12.45;10.32;;;;;;;10.60;45.81;100630.91;5033358;28;20040;-79
2022/11/27 09:47:58;;;;;;;10.70;9.32;;;;;;;9.44;45.40;100428.53;5034703;28;20021;-79
2022/11/27 09:50:27;;;;;;;12.93;10.18;;;;;;;10.29;45.31;100553.88;5034471;28;20079;-78
2022/11/27 09:52:55;;;;;;;10.00;8.85;;;;;;;10.18;45.21;100527.69;5034315;28;20064;-79
2022/11/27 09:55:29;;;;;;;10.05;7.97;;;;;;;10.03;45.13;100493.06;5050228;28;20040;-79
2022/11/27 09:58:03;;;;;;;10.57;9.00;;;;;;;9.79;45.50;100437.47;5054184;28;20032;-79
2022/11/27 10:00:28;;;;;;;9.75;8.20;;;;;;;10.59;44.87;100552.66;5054268;28;20456;-79
2022/11/27 10:02:54;;;;;;;12.63;8.23;;;;;;;10.09;44.84;100466.09;5054336;28;20025;-79
2022/11/27 10:05:23;;;;;;;8.88;7.05;;;;;;;10.88;45.17;100586.72;5054953;28;20095;-78
2022/11/27 10:08:19;;;;;;;8.65;7.20;;;;;;;10.93;44.45;100589.72;5055290;28;20493;-79
2022/11/27 10:10:48;;;;;;;8.90;7.28;;;;;;;10.94;44.78;100586.09;5053025;28;20101;-79
2022/11/27 10:13:30;;;;;;;8.38;6.68;;;;;;;10.74;44.73;100537.09;5054151;28;20055;-79
2022/11/27 10:16:06;;;;;;;7.72;6.90;;;;;;;10.74;44.38;100508.03;5069483;28;20025;-79
2022/11/27 10:18:48;;;;;;;7.97;6.18;;;;;;;11.27;43.57;100576.56;5053993;28;20021;-79
2022/11/27 10:21:24;;;;;;;7.30;5.47;;;;;;;10.47;43.47;100456.19;5054087;28;20120;-79
2022/11/27 10:24:10;;;;;;;7.45;5.75;;;;;;;11.27;43.24;100573.09;5054102;28;20087;-79
2022/11/27 10:26:40;;;;;;;5.60;5.00;;;;;;;11.27;42.32;100581.03;5053956;28;20024;-79
2022/11/27 10:29:13;;;;;;;6.45;4.93;;;;;;;11.27;42.54;100573.09;5053857;28;20096;-79
2022/11/27 10:31:47;;;;;;;6.93;4.70;;;;;;;11.31;42.48;100575.28;5052519;28;20025;-79
2022/11/27 10:34:40;;;;;;;7.18;6.03;;;;;;;11.07;41.16;100523.09;5052413;28;20104;-79
2022/11/27 10:37:29;;;;;;;7.88;6.50;;;;;;;10.29;41.85;100395.50;5048874;28;20040;-79
2022/11/27 10:40:37;;;;;;;8.07;7.10;;;;;;;11.13;41.41;100525.09;5052310;28;20112;-78
2022/11/27 10:43:11;;;;;;;7.03;5.35;;;;;;;11.35;42.10;100565.22;5053248;28;20025;-79
2022/11/27 10:45:47;;;;;;;8.02;5.50;;;;;;;11.34;42.23;100564.38;5053498;28;20486;-78
2022/11/27 10:48:13;;;;;;;8.68;6.25;;;;;;;10.65;42.10;100429.72;5053576;28;20017;-79
2022/11/27 10:50:40;;;;;;;7.38;6.65;;;;;;;10.85;42.20;100443.53;5053632;28;20039;-79
2022/11/27 10:53:34;;;;;;;8.00;6.00;;;;;;;11.29;41.58;100518.25;5052113;28;20013;-79
2022/11/27 10:56:09;;;;;;;7.78;6.00;;;;;;;11.52;41.74;100555.53;5053778;28;20020;-79
2022/11/27 10:58:55;;;;;;;5.43;4.53;;;;;;;11.51;40.51;100545.94;5055685;28;20120;-80
2022/11/27 11:01:23;;;;;;;5.93;4.72;;;;;;;10.84;41.10;100437.41;5065818;28;20111;-79
2022/11/27 11:03:48;;;;;;;9.13;6.32;;;;;;;11.31;41.26;100511.00;5052899;28;20029;-78
2022/11/27 11:06:25;;;;;;;6.82;6.00;;;;;;;11.50;40.71;100544.28;5053055;28;20410;-79
2022/11/27 11:09:12;;;;;;;8.35;6.30;;;;;;;11.36;40.64;100543.91;5053032;28;20041;-79
2022/11/27 11:11:38;;;;;;;7.47;6.63;;;;;;;11.31;41.86;100534.78;5052910;28;20021;-79
2022/11/27 11:14:14;;;;;;;7.40;6.43;;;;;;;10.93;41.74;100467.34;5052875;28;20021;-80
2022/11/27 11:16:42;;;;;;;8.75;7.45;;;;;;;11.04;41.14;100478.47;5052829;28;20027;-79
2022/11/27 11:19:29;;;;;;;8.38;6.50;;;;;;;10.75;40.82;100436.56;5053053;28;20081;-80
2022/11/27 11:21:55;;;;;;;6.20;5.47;;;;;;;11.36;41.65;100524.56;5068298;28;20020;-79
2022/11/27 11:24:32;;;;;;;8.95;7.20;;;;;;;11.07;41.19;100477.31;5053043;28;20074;-78
2022/11/27 11:27:15;;;;;;;8.32;6.55;;;;;;;11.13;40.79;100477.53;5052883;28;20060;-79
2022/11/27 11:30:04;;;;;;;7.15;5.72;;;;;;;11.26;41.02;100477.09;5052961;28;20017;-79
2022/11/27 11:32:36;;;;;;;8.73;5.90;;;;;;;11.51;41.24;100499.16;5052476;28;20029;-78